sensor_id;sensor_type;location;lat;lon;timestamp;P1;durP1;ratioP1;P2;durP2;ratioP2
10880;SDS011;5493;48.884;8.338;2023-04-06T00:01:46;3.67;;;2.87;;
10880;SDS011;5493;48.884;8.338;2023-04-06T00:04:13;2.40;;;2.03;;
10880;SDS011;5493;48.884;8.338;2023-04-06T00:06:40;3.20;;;2.03;;
10880;SDS011;5493;48.884;8.338;2023-04-06T00:09:06;3.37;;;2.10;;
10880;SDS011;5493;48.884;8.338;2023-04-06T00:11:33;3.70;;;2.37;;
10880;SDS011;5493;48.884;8.338;2023-04-06T00:14:00;6.20;;;1.97;;
10880;SDS011;5493;48.884;8.338;2023-04-06T00:16:27;2.37;;;1.83;;
10880;SDS011;5493;48.884;8.338;2023-04-06T00:18:54;2.57;;;1.77;;
10880;SDS011;5493;48.884;8.338;2023-04-06T00:21:21;4.00;;;1.90;;
10880;SDS011;5493;48.884;8.338;2023-04-06T00:23:47;2.10;;;1.70;;
10880;SDS011;5493;48.884;8.338;2023-04-06T00:26:14;3.70;;;1.67;;
10880;SDS011;5493;48.884;8.338;2023-04-06T00:28:40;1.60;;;1.50;;
10880;SDS011;5493;48.884;8.338;2023-04-06T00:31:07;2.40;;;1.93;;
10880;SDS011;5493;48.884;8.338;2023-04-06T00:33:35;2.77;;;2.20;;
10880;SDS011;5493;48.884;8.338;2023-04-06T00:36:01;1.60;;;1.50;;
10880;SDS011;5493;48.884;8.338;2023-04-06T00:38:28;2.43;;;1.80;;
10880;SDS011;5493;48.884;8.338;2023-04-06T00:40:54;1.73;;;1.57;;
10880;SDS011;5493;48.884;8.338;2023-04-06T00:43:21;3.60;;;1.67;;
10880;SDS011;5493;48.884;8.338;2023-04-06T00:45:47;1.57;;;1.43;;
10880;SDS011;5493;48.884;8.338;2023-04-06T00:48:14;1.70;;;1.33;;
10880;SDS011;5493;48.884;8.338;2023-04-06T00:50:42;1.93;;;1.40;;
10880;SDS011;5493;48.884;8.338;2023-04-06T00:53:08;1.67;;;1.57;;
10880;SDS011;5493;48.884;8.338;2023-04-06T00:55:35;1.53;;;1.43;;
10880;SDS011;5493;48.884;8.338;2023-04-06T00:58:01;2.53;;;1.87;;
10880;SDS011;5493;48.884;8.338;2023-04-06T01:00:28;2.93;;;1.70;;
10880;SDS011;5493;48.884;8.338;2023-04-06T01:02:55;3.10;;;2.10;;
10880;SDS011;5493;48.884;8.338;2023-04-06T01:05:22;2.77;;;1.77;;
10880;SDS011;5493;48.884;8.338;2023-04-06T01:07:50;2.83;;;1.60;;
10880;SDS011;5493;48.884;8.338;2023-04-06T01:10:22;2.60;;;1.73;;
10880;SDS011;5493;48.884;8.338;2023-04-06T01:12:49;3.03;;;1.87;;
10880;SDS011;5493;48.884;8.338;2023-04-06T01:15:16;2.83;;;1.73;;
10880;SDS011;5493;48.884;8.338;2023-04-06T01:17:43;2.27;;;1.90;;
10880;SDS011;5493;48.884;8.338;2023-04-06T01:20:09;2.63;;;1.83;;
10880;SDS011;5493;48.884;8.338;2023-04-06T01:22:37;7.20;;;2.80;;
10880;SDS011;5493;48.884;8.338;2023-04-06T01:25:04;3.57;;;2.87;;
10880;SDS011;5493;48.884;8.338;2023-04-06T01:27:32;4.37;;;2.80;;
10880;SDS011;5493;48.884;8.338;2023-04-06T01:29:58;2.57;;;2.00;;
10880;SDS011;5493;48.884;8.338;2023-04-06T01:32:25;4.00;;;1.50;;
10880;SDS011;5493;48.884;8.338;2023-04-06T01:34:52;2.90;;;1.90;;
10880;SDS011;5493;48.884;8.338;2023-04-06T01:37:19;2.93;;;2.10;;
10880;SDS011;5493;48.884;8.338;2023-04-06T01:39:47;3.47;;;1.80;;
10880;SDS011;5493;48.884;8.338;2023-04-06T01:42:14;3.37;;;2.07;;
10880;SDS011;5493;48.884;8.338;2023-04-06T01:44:40;2.60;;;1.60;;
10880;SDS011;5493;48.884;8.338;2023-04-06T01:47:07;4.50;;;2.30;;
10880;SDS011;5493;48.884;8.338;2023-04-06T01:49:33;6.17;;;2.57;;
10880;SDS011;5493;48.884;8.338;2023-04-06T01:52:00;3.07;;;2.10;;
10880;SDS011;5493;48.884;8.338;2023-04-06T01:54:26;2.03;;;1.80;;
10880;SDS011;5493;48.884;8.338;2023-04-06T01:56:54;2.50;;;2.00;;
10880;SDS011;5493;48.884;8.338;2023-04-06T01:59:20;2.20;;;2.00;;
10880;SDS011;5493;48.884;8.338;2023-04-06T02:01:47;3.10;;;2.03;;
10880;SDS011;5493;48.884;8.338;2023-04-06T02:04:14;3.10;;;2.13;;
10880;SDS011;5493;48.884;8.338;2023-04-06T02:06:40;3.13;;;1.90;;
10880;SDS011;5493;48.884;8.338;2023-04-06T02:09:07;3.30;;;2.10;;
10880;SDS011;5493;48.884;8.338;2023-04-06T02:11:33;4.27;;;2.00;;
10880;SDS011;5493;48.884;8.338;2023-04-06T02:14:01;3.30;;;2.40;;
10880;SDS011;5493;48.884;8.338;2023-04-06T02:16:28;4.97;;;2.10;;
10880;SDS011;5493;48.884;8.338;2023-04-06T02:18:54;2.63;;;1.93;;
10880;SDS011;5493;48.884;8.338;2023-04-06T02:21:21;2.83;;;2.23;;
10880;SDS011;5493;48.884;8.338;2023-04-06T02:23:47;2.97;;;1.87;;
10880;SDS011;5493;48.884;8.338;2023-04-06T02:26:14;2.20;;;2.00;;
10880;SDS011;5493;48.884;8.338;2023-04-06T02:28:41;3.90;;;2.30;;
10880;SDS011;5493;48.884;8.338;2023-04-06T02:31:09;2.67;;;1.90;;
10880;SDS011;5493;48.884;8.338;2023-04-06T02:33:36;3.77;;;1.90;;
10880;SDS011;5493;48.884;8.338;2023-04-06T02:36:02;3.80;;;1.90;;
10880;SDS011;5493;48.884;8.338;2023-04-06T02:38:29;2.37;;;2.00;;
10880;SDS011;5493;48.884;8.338;2023-04-06T02:40:55;5.90;;;2.37;;
10880;SDS011;5493;48.884;8.338;2023-04-06T02:43:22;2.43;;;2.13;;
10880;SDS011;5493;48.884;8.338;2023-04-06T02:45:48;4.37;;;2.23;;
10880;SDS011;5493;48.884;8.338;2023-04-06T02:48:16;4.03;;;2.30;;
10880;SDS011;5493;48.884;8.338;2023-04-06T02:50:43;2.60;;;2.40;;
10880;SDS011;5493;48.884;8.338;2023-04-06T02:53:10;3.33;;;2.20;;
10880;SDS011;5493;48.884;8.338;2023-04-06T02:55:36;3.40;;;2.10;;
10880;SDS011;5493;48.884;8.338;2023-04-06T02:58:03;3.17;;;2.13;;
10880;SDS011;5493;48.884;8.338;2023-04-06T03:00:29;4.10;;;2.20;;
10880;SDS011;5493;48.884;8.338;2023-04-06T03:02:56;4.80;;;2.40;;
10880;SDS011;5493;48.884;8.338;2023-04-06T03:05:23;4.00;;;2.20;;
10880;SDS011;5493;48.884;8.338;2023-04-06T03:07:50;2.60;;;2.17;;
10880;SDS011;5493;48.884;8.338;2023-04-06T03:10:16;2.47;;;1.77;;
10880;SDS011;5493;48.884;8.338;2023-04-06T03:12:43;3.73;;;2.33;;
10880;SDS011;5493;48.884;8.338;2023-04-06T03:15:10;3.23;;;2.00;;
10880;SDS011;5493;48.884;8.338;2023-04-06T03:17:36;3.30;;;2.00;;
10880;SDS011;5493;48.884;8.338;2023-04-06T03:20:03;3.13;;;2.13;;
10880;SDS011;5493;48.884;8.338;2023-04-06T03:22:31;3.40;;;2.27;;
10880;SDS011;5493;48.884;8.338;2023-04-06T03:24:58;4.13;;;2.20;;
10880;SDS011;5493;48.884;8.338;2023-04-06T03:27:24;3.30;;;2.37;;
10880;SDS011;5493;48.884;8.338;2023-04-06T03:29:51;2.57;;;2.17;;
10880;SDS011;5493;48.884;8.338;2023-04-06T03:32:17;5.57;;;2.43;;
10880;SDS011;5493;48.884;8.338;2023-04-06T03:34:44;2.77;;;2.03;;
10880;SDS011;5493;48.884;8.338;2023-04-06T03:37:11;3.20;;;2.33;;
10880;SDS011;5493;48.884;8.338;2023-04-06T03:39:38;4.67;;;2.70;;
10880;SDS011;5493;48.884;8.338;2023-04-06T03:42:05;2.77;;;2.10;;
10880;SDS011;5493;48.884;8.338;2023-04-06T03:44:32;3.60;;;2.37;;
10880;SDS011;5493;48.884;8.338;2023-04-06T03:46:58;4.37;;;2.70;;
10880;SDS011;5493;48.884;8.338;2023-04-06T03:49:25;4.27;;;2.70;;
10880;SDS011;5493;48.884;8.338;2023-04-06T03:51:52;3.27;;;2.47;;
10880;SDS011;5493;48.884;8.338;2023-04-06T03:54:19;3.87;;;2.70;;
10880;SDS011;5493;48.884;8.338;2023-04-06T03:56:47;5.33;;;2.87;;
10880;SDS011;5493;48.884;8.338;2023-04-06T03:59:13;3.47;;;2.80;;
10880;SDS011;5493;48.884;8.338;2023-04-06T04:01:40;3.03;;;2.40;;
10880;SDS011;5493;48.884;8.338;2023-04-06T04:04:06;3.40;;;2.27;;
10880;SDS011;5493;48.884;8.338;2023-04-06T04:06:33;3.07;;;2.40;;
10880;SDS011;5493;48.884;8.338;2023-04-06T04:09:01;3.90;;;2.67;;
10880;SDS011;5493;48.884;8.338;2023-04-06T04:11:29;4.90;;;2.53;;
10880;SDS011;5493;48.884;8.338;2023-04-06T04:13:57;4.57;;;2.90;;
10880;SDS011;5493;48.884;8.338;2023-04-06T04:16:23;3.93;;;2.70;;
10880;SDS011;5493;48.884;8.338;2023-04-06T04:18:50;4.40;;;2.70;;
10880;SDS011;5493;48.884;8.338;2023-04-06T04:21:16;5.33;;;2.57;;
10880;SDS011;5493;48.884;8.338;2023-04-06T04:23:43;5.10;;;2.73;;
10880;SDS011;5493;48.884;8.338;2023-04-06T04:26:09;3.47;;;2.97;;
10880;SDS011;5493;48.884;8.338;2023-04-06T04:28:36;3.20;;;2.80;;
10880;SDS011;5493;48.884;8.338;2023-04-06T04:31:05;2.97;;;2.10;;
10880;SDS011;5493;48.884;8.338;2023-04-06T04:33:32;4.00;;;2.40;;
10880;SDS011;5493;48.884;8.338;2023-04-06T04:35:58;3.13;;;2.10;;
10880;SDS011;5493;48.884;8.338;2023-04-06T04:38:25;3.33;;;2.50;;
10880;SDS011;5493;48.884;8.338;2023-04-06T04:40:51;3.10;;;2.57;;
10880;SDS011;5493;48.884;8.338;2023-04-06T04:43:18;4.00;;;2.90;;
10880;SDS011;5493;48.884;8.338;2023-04-06T04:45:44;3.33;;;2.27;;
10880;SDS011;5493;48.884;8.338;2023-04-06T04:48:12;5.23;;;3.20;;
10880;SDS011;5493;48.884;8.338;2023-04-06T04:50:38;3.57;;;2.70;;
10880;SDS011;5493;48.884;8.338;2023-04-06T04:53:05;3.77;;;3.00;;
10880;SDS011;5493;48.884;8.338;2023-04-06T04:55:31;4.13;;;2.70;;
10880;SDS011;5493;48.884;8.338;2023-04-06T04:57:58;4.03;;;2.83;;
10880;SDS011;5493;48.884;8.338;2023-04-06T05:00:25;5.47;;;3.20;;
10880;SDS011;5493;48.884;8.338;2023-04-06T05:02:51;5.73;;;3.27;;
10880;SDS011;5493;48.884;8.338;2023-04-06T05:05:19;7.40;;;3.60;;
10880;SDS011;5493;48.884;8.338;2023-04-06T05:07:46;4.30;;;3.47;;
10880;SDS011;5493;48.884;8.338;2023-04-06T05:10:12;3.73;;;3.30;;
10880;SDS011;5493;48.884;8.338;2023-04-06T05:12:39;5.90;;;4.03;;
10880;SDS011;5493;48.884;8.338;2023-04-06T05:15:06;10.90;;;4.47;;
10880;SDS011;5493;48.884;8.338;2023-04-06T05:17:34;6.13;;;4.10;;
10880;SDS011;5493;48.884;8.338;2023-04-06T05:20:00;7.87;;;4.03;;
10880;SDS011;5493;48.884;8.338;2023-04-06T05:22:28;5.67;;;4.00;;
10880;SDS011;5493;48.884;8.338;2023-04-06T05:24:55;5.97;;;3.20;;
10880;SDS011;5493;48.884;8.338;2023-04-06T05:27:21;4.47;;;3.30;;
10880;SDS011;5493;48.884;8.338;2023-04-06T05:29:48;5.63;;;3.43;;
10880;SDS011;5493;48.884;8.338;2023-04-06T05:32:15;3.80;;;3.00;;
10880;SDS011;5493;48.884;8.338;2023-04-06T05:34:41;3.77;;;2.83;;
10880;SDS011;5493;48.884;8.338;2023-04-06T05:37:08;5.77;;;3.63;;
10880;SDS011;5493;48.884;8.338;2023-04-06T05:39:36;4.20;;;3.27;;
10880;SDS011;5493;48.884;8.338;2023-04-06T05:42:03;3.57;;;3.23;;
10880;SDS011;5493;48.884;8.338;2023-04-06T05:44:30;5.13;;;3.13;;
10880;SDS011;5493;48.884;8.338;2023-04-06T05:46:57;4.27;;;3.70;;
10880;SDS011;5493;48.884;8.338;2023-04-06T05:49:23;5.00;;;3.33;;
10880;SDS011;5493;48.884;8.338;2023-04-06T05:51:50;4.93;;;3.03;;
10880;SDS011;5493;48.884;8.338;2023-04-06T05:54:16;4.70;;;3.23;;
10880;SDS011;5493;48.884;8.338;2023-04-06T05:56:44;4.30;;;2.80;;
10880;SDS011;5493;48.884;8.338;2023-04-06T05:59:11;4.30;;;3.20;;
10880;SDS011;5493;48.884;8.338;2023-04-06T06:01:37;4.87;;;3.40;;
10880;SDS011;5493;48.884;8.338;2023-04-06T06:04:04;5.80;;;3.47;;
10880;SDS011;5493;48.884;8.338;2023-04-06T06:06:30;6.40;;;3.57;;
10880;SDS011;5493;48.884;8.338;2023-04-06T06:08:57;4.27;;;3.20;;
10880;SDS011;5493;48.884;8.338;2023-04-06T06:11:25;5.10;;;3.20;;
10880;SDS011;5493;48.884;8.338;2023-04-06T06:13:53;5.80;;;3.07;;
10880;SDS011;5493;48.884;8.338;2023-04-06T06:16:20;4.13;;;3.03;;
10880;SDS011;5493;48.884;8.338;2023-04-06T06:18:46;3.50;;;3.03;;
10880;SDS011;5493;48.884;8.338;2023-04-06T06:21:13;7.03;;;3.80;;
10880;SDS011;5493;48.884;8.338;2023-04-06T06:23:39;4.67;;;3.80;;
10880;SDS011;5493;48.884;8.338;2023-04-06T06:26:08;4.37;;;3.30;;
10880;SDS011;5493;48.884;8.338;2023-04-06T06:28:34;4.60;;;3.20;;
10880;SDS011;5493;48.884;8.338;2023-04-06T06:31:02;3.80;;;2.90;;
10880;SDS011;5493;48.884;8.338;2023-04-06T06:33:29;5.13;;;2.80;;
10880;SDS011;5493;48.884;8.338;2023-04-06T06:35:55;3.60;;;2.63;;
10880;SDS011;5493;48.884;8.338;2023-04-06T06:38:22;4.73;;;3.00;;
10880;SDS011;5493;48.884;8.338;2023-04-06T06:40:48;5.60;;;3.30;;
10880;SDS011;5493;48.884;8.338;2023-04-06T06:43:15;3.20;;;2.77;;
10880;SDS011;5493;48.884;8.338;2023-04-06T06:45:41;6.23;;;3.63;;
10880;SDS011;5493;48.884;8.338;2023-04-06T06:48:09;4.73;;;3.37;;
10880;SDS011;5493;48.884;8.338;2023-04-06T06:50:35;4.30;;;3.53;;
10880;SDS011;5493;48.884;8.338;2023-04-06T06:53:02;3.10;;;2.77;;
10880;SDS011;5493;48.884;8.338;2023-04-06T06:55:29;5.33;;;3.50;;
10880;SDS011;5493;48.884;8.338;2023-04-06T06:57:56;4.83;;;2.90;;
10880;SDS011;5493;48.884;8.338;2023-04-06T07:00:23;6.40;;;3.10;;
10880;SDS011;5493;48.884;8.338;2023-04-06T07:02:49;3.63;;;2.90;;
10880;SDS011;5493;48.884;8.338;2023-04-06T07:05:17;4.10;;;2.93;;
10880;SDS011;5493;48.884;8.338;2023-04-06T07:07:44;5.33;;;3.17;;
10880;SDS011;5493;48.884;8.338;2023-04-06T07:10:11;3.43;;;2.87;;
10880;SDS011;5493;48.884;8.338;2023-04-06T07:12:37;6.13;;;3.27;;
10880;SDS011;5493;48.884;8.338;2023-04-06T07:15:05;3.83;;;3.37;;
10880;SDS011;5493;48.884;8.338;2023-04-06T07:17:32;4.50;;;3.33;;
10880;SDS011;5493;48.884;8.338;2023-04-06T07:19:59;6.70;;;3.63;;
10880;SDS011;5493;48.884;8.338;2023-04-06T07:22:27;7.43;;;4.73;;
10880;SDS011;5493;48.884;8.338;2023-04-06T07:24:53;4.90;;;3.70;;
10880;SDS011;5493;48.884;8.338;2023-04-06T07:27:20;4.37;;;3.20;;
10880;SDS011;5493;48.884;8.338;2023-04-06T07:29:47;6.30;;;2.90;;
10880;SDS011;5493;48.884;8.338;2023-04-06T07:32:13;5.17;;;3.30;;
10880;SDS011;5493;48.884;8.338;2023-04-06T07:34:40;5.73;;;3.47;;
10880;SDS011;5493;48.884;8.338;2023-04-06T07:37:06;4.63;;;3.70;;
10880;SDS011;5493;48.884;8.338;2023-04-06T07:39:34;8.50;;;4.10;;
10880;SDS011;5493;48.884;8.338;2023-04-06T07:42:01;5.13;;;3.77;;
10880;SDS011;5493;48.884;8.338;2023-04-06T07:44:27;6.10;;;3.80;;
10880;SDS011;5493;48.884;8.338;2023-04-06T07:46:54;9.27;;;4.90;;
10880;SDS011;5493;48.884;8.338;2023-04-06T07:49:20;6.53;;;4.20;;
10880;SDS011;5493;48.884;8.338;2023-04-06T07:51:48;6.00;;;4.20;;
10880;SDS011;5493;48.884;8.338;2023-04-06T07:54:14;30.30;;;13.47;;
10880;SDS011;5493;48.884;8.338;2023-04-06T07:56:42;9.03;;;5.70;;
10880;SDS011;5493;48.884;8.338;2023-04-06T07:59:09;12.90;;;6.80;;
10880;SDS011;5493;48.884;8.338;2023-04-06T08:01:36;22.20;;;12.27;;
10880;SDS011;5493;48.884;8.338;2023-04-06T08:04:02;8.30;;;4.40;;
10880;SDS011;5493;48.884;8.338;2023-04-06T08:06:29;6.93;;;3.90;;
10880;SDS011;5493;48.884;8.338;2023-04-06T08:08:55;10.57;;;7.20;;
10880;SDS011;5493;48.884;8.338;2023-04-06T08:11:22;7.17;;;4.80;;
10880;SDS011;5493;48.884;8.338;2023-04-06T08:13:50;6.10;;;4.13;;
10880;SDS011;5493;48.884;8.338;2023-04-06T08:16:17;11.80;;;9.27;;
10880;SDS011;5493;48.884;8.338;2023-04-06T08:18:44;8.90;;;8.10;;
10880;SDS011;5493;48.884;8.338;2023-04-06T08:21:11;6.73;;;4.40;;
10880;SDS011;5493;48.884;8.338;2023-04-06T08:23:37;6.00;;;4.20;;
10880;SDS011;5493;48.884;8.338;2023-04-06T08:26:04;6.27;;;4.37;;
10880;SDS011;5493;48.884;8.338;2023-04-06T08:28:30;5.67;;;4.43;;
10880;SDS011;5493;48.884;8.338;2023-04-06T08:30:58;7.10;;;4.57;;
10880;SDS011;5493;48.884;8.338;2023-04-06T08:33:25;4.70;;;4.20;;
10880;SDS011;5493;48.884;8.338;2023-04-06T08:35:51;6.07;;;4.67;;
10880;SDS011;5493;48.884;8.338;2023-04-06T08:38:18;5.23;;;4.20;;
10880;SDS011;5493;48.884;8.338;2023-04-06T08:40:44;5.90;;;3.40;;
10880;SDS011;5493;48.884;8.338;2023-04-06T08:43:13;4.30;;;3.50;;
10880;SDS011;5493;48.884;8.338;2023-04-06T08:45:41;4.80;;;3.47;;
10880;SDS011;5493;48.884;8.338;2023-04-06T08:48:09;6.43;;;4.10;;
10880;SDS011;5493;48.884;8.338;2023-04-06T08:50:38;6.53;;;4.23;;
10880;SDS011;5493;48.884;8.338;2023-04-06T08:53:05;6.03;;;4.80;;
10880;SDS011;5493;48.884;8.338;2023-04-06T08:55:32;7.70;;;4.90;;
10880;SDS011;5493;48.884;8.338;2023-04-06T08:57:59;6.67;;;4.73;;
10880;SDS011;5493;48.884;8.338;2023-04-06T09:00:26;6.27;;;4.87;;
10880;SDS011;5493;48.884;8.338;2023-04-06T09:02:54;5.73;;;4.77;;
10880;SDS011;5493;48.884;8.338;2023-04-06T09:05:23;7.30;;;4.90;;
10880;SDS011;5493;48.884;8.338;2023-04-06T09:07:51;5.67;;;4.47;;
10880;SDS011;5493;48.884;8.338;2023-04-06T09:10:18;6.17;;;4.67;;
10880;SDS011;5493;48.884;8.338;2023-04-06T09:12:45;7.40;;;4.90;;
10880;SDS011;5493;48.884;8.338;2023-04-06T09:15:17;8.00;;;5.03;;
10880;SDS011;5493;48.884;8.338;2023-04-06T09:17:45;7.85;;;5.28;;
10880;SDS011;5493;48.884;8.338;2023-04-06T09:20:11;9.20;;;5.13;;
10880;SDS011;5493;48.884;8.338;2023-04-06T09:22:39;6.22;;;5.40;;
10880;SDS011;5493;48.884;8.338;2023-04-06T09:25:08;7.57;;;5.32;;
10880;SDS011;5493;48.884;8.338;2023-04-06T09:27:36;7.18;;;5.28;;
10880;SDS011;5493;48.884;8.338;2023-04-06T09:30:04;6.88;;;5.43;;
10880;SDS011;5493;48.884;8.338;2023-04-06T09:32:32;6.63;;;4.85;;
10880;SDS011;5493;48.884;8.338;2023-04-06T09:35:09;6.10;;;4.95;;
10880;SDS011;5493;48.884;8.338;2023-04-06T09:37:36;6.43;;;5.40;;
10880;SDS011;5493;48.884;8.338;2023-04-06T09:40:05;7.20;;;4.72;;
10880;SDS011;5493;48.884;8.338;2023-04-06T09:42:33;5.85;;;5.25;;
10880;SDS011;5493;48.884;8.338;2023-04-06T09:45:00;5.68;;;4.82;;
10880;SDS011;5493;48.884;8.338;2023-04-06T09:47:27;5.20;;;4.60;;
10880;SDS011;5493;48.884;8.338;2023-04-06T09:49:55;9.05;;;5.30;;
10880;SDS011;5493;48.884;8.338;2023-04-06T09:52:23;5.30;;;4.35;;
10880;SDS011;5493;48.884;8.338;2023-04-06T09:54:53;5.07;;;4.57;;
10880;SDS011;5493;48.884;8.338;2023-04-06T09:57:28;8.13;;;5.22;;
10880;SDS011;5493;48.884;8.338;2023-04-06T10:00:01;5.35;;;4.38;;
10880;SDS011;5493;48.884;8.338;2023-04-06T10:02:34;6.95;;;5.55;;
10880;SDS011;5493;48.884;8.338;2023-04-06T10:05:07;5.78;;;5.18;;
10880;SDS011;5493;48.884;8.338;2023-04-06T10:07:39;6.97;;;4.85;;
10880;SDS011;5493;48.884;8.338;2023-04-06T10:10:06;7.18;;;5.13;;
10880;SDS011;5493;48.884;8.338;2023-04-06T10:12:35;6.25;;;4.70;;
10880;SDS011;5493;48.884;8.338;2023-04-06T10:15:03;5.07;;;4.57;;
10880;SDS011;5493;48.884;8.338;2023-04-06T10:17:30;5.32;;;4.70;;
10880;SDS011;5493;48.884;8.338;2023-04-06T10:19:58;5.55;;;4.50;;
10880;SDS011;5493;48.884;8.338;2023-04-06T10:22:29;6.72;;;4.88;;
10880;SDS011;5493;48.884;8.338;2023-04-06T10:25:05;6.35;;;4.50;;
10880;SDS011;5493;48.884;8.338;2023-04-06T10:27:33;7.25;;;4.72;;
10880;SDS011;5493;48.884;8.338;2023-04-06T10:30:02;6.20;;;5.32;;
10880;SDS011;5493;48.884;8.338;2023-04-06T10:32:36;4.75;;;4.30;;
10880;SDS011;5493;48.884;8.338;2023-04-06T10:35:10;5.30;;;4.40;;
10880;SDS011;5493;48.884;8.338;2023-04-06T10:37:48;5.93;;;4.97;;
10880;SDS011;5493;48.884;8.338;2023-04-06T10:40:19;6.05;;;5.45;;
10880;SDS011;5493;48.884;8.338;2023-04-06T10:42:48;6.05;;;5.32;;
10880;SDS011;5493;48.884;8.338;2023-04-06T10:45:23;8.48;;;7.10;;
10880;SDS011;5493;48.884;8.338;2023-04-06T10:47:52;7.32;;;6.53;;
10880;SDS011;5493;48.884;8.338;2023-04-06T10:50:19;6.15;;;5.18;;
10880;SDS011;5493;48.884;8.338;2023-04-06T10:52:46;21.33;;;16.98;;
10880;SDS011;5493;48.884;8.338;2023-04-06T10:55:13;7.60;;;5.38;;
10880;SDS011;5493;48.884;8.338;2023-04-06T10:57:40;9.10;;;8.07;;
10880;SDS011;5493;48.884;8.338;2023-04-06T11:00:07;8.52;;;5.53;;
10880;SDS011;5493;48.884;8.338;2023-04-06T11:02:36;8.68;;;7.32;;
10880;SDS011;5493;48.884;8.338;2023-04-06T11:05:04;6.35;;;5.70;;
10880;SDS011;5493;48.884;8.338;2023-04-06T11:07:31;7.13;;;5.60;;
10880;SDS011;5493;48.884;8.338;2023-04-06T11:09:57;7.65;;;6.13;;
10880;SDS011;5493;48.884;8.338;2023-04-06T11:12:24;7.32;;;5.68;;
10880;SDS011;5493;48.884;8.338;2023-04-06T11:14:55;8.00;;;6.10;;
10880;SDS011;5493;48.884;8.338;2023-04-06T11:17:27;6.68;;;5.20;;
10880;SDS011;5493;48.884;8.338;2023-04-06T11:19:55;8.27;;;5.45;;
10880;SDS011;5493;48.884;8.338;2023-04-06T11:22:22;7.28;;;5.47;;
10880;SDS011;5493;48.884;8.338;2023-04-06T11:24:49;6.55;;;5.28;;
10880;SDS011;5493;48.884;8.338;2023-04-06T11:27:16;5.75;;;5.15;;
10880;SDS011;5493;48.884;8.338;2023-04-06T11:29:43;9.60;;;6.55;;
10880;SDS011;5493;48.884;8.338;2023-04-06T11:32:11;8.45;;;5.85;;
10880;SDS011;5493;48.884;8.338;2023-04-06T11:34:47;7.03;;;5.60;;
10880;SDS011;5493;48.884;8.338;2023-04-06T11:37:15;8.18;;;5.90;;
10880;SDS011;5493;48.884;8.338;2023-04-06T11:39:43;7.13;;;6.13;;
10880;SDS011;5493;48.884;8.338;2023-04-06T11:42:20;9.02;;;6.07;;
10880;SDS011;5493;48.884;8.338;2023-04-06T11:44:49;7.07;;;5.82;;
10880;SDS011;5493;48.884;8.338;2023-04-06T11:47:17;6.65;;;5.68;;
10880;SDS011;5493;48.884;8.338;2023-04-06T11:49:44;6.28;;;5.40;;
10880;SDS011;5493;48.884;8.338;2023-04-06T11:52:17;6.20;;;5.25;;
10880;SDS011;5493;48.884;8.338;2023-04-06T11:54:45;7.22;;;4.95;;
10880;SDS011;5493;48.884;8.338;2023-04-06T11:57:12;6.28;;;5.07;;
10880;SDS011;5493;48.884;8.338;2023-04-06T11:59:39;8.02;;;5.63;;
10880;SDS011;5493;48.884;8.338;2023-04-06T12:02:06;6.65;;;5.10;;
10880;SDS011;5493;48.884;8.338;2023-04-06T12:04:32;7.33;;;5.50;;
10880;SDS011;5493;48.884;8.338;2023-04-06T12:06:59;8.18;;;5.10;;
10880;SDS011;5493;48.884;8.338;2023-04-06T12:09:27;7.68;;;5.50;;
10880;SDS011;5493;48.884;8.338;2023-04-06T12:11:54;6.50;;;5.10;;
10880;SDS011;5493;48.884;8.338;2023-04-06T12:14:21;6.35;;;4.95;;
10880;SDS011;5493;48.884;8.338;2023-04-06T12:16:47;7.97;;;5.17;;
10880;SDS011;5493;48.884;8.338;2023-04-06T12:19:14;7.55;;;5.45;;
10880;SDS011;5493;48.884;8.338;2023-04-06T12:21:40;7.77;;;5.10;;
10880;SDS011;5493;48.884;8.338;2023-04-06T12:24:07;6.17;;;4.87;;
10880;SDS011;5493;48.884;8.338;2023-04-06T12:26:35;6.87;;;4.97;;
10880;SDS011;5493;48.884;8.338;2023-04-06T12:29:03;7.30;;;5.90;;
10880;SDS011;5493;48.884;8.338;2023-04-06T12:31:32;6.63;;;5.47;;
10880;SDS011;5493;48.884;8.338;2023-04-06T12:33:59;5.33;;;4.27;;
10880;SDS011;5493;48.884;8.338;2023-04-06T12:36:27;6.00;;;4.37;;
10880;SDS011;5493;48.884;8.338;2023-04-06T12:38:53;6.70;;;5.20;;
10880;SDS011;5493;48.884;8.338;2023-04-06T12:41:20;7.00;;;4.70;;
10880;SDS011;5493;48.884;8.338;2023-04-06T12:43:48;7.30;;;5.00;;
10880;SDS011;5493;48.884;8.338;2023-04-06T12:46:15;5.83;;;4.43;;
10880;SDS011;5493;48.884;8.338;2023-04-06T12:48:42;5.40;;;4.17;;
10880;SDS011;5493;48.884;8.338;2023-04-06T12:51:08;6.13;;;4.10;;
10880;SDS011;5493;48.884;8.338;2023-04-06T12:53:35;7.20;;;3.80;;
10880;SDS011;5493;48.884;8.338;2023-04-06T12:56:02;6.30;;;3.87;;
10880;SDS011;5493;48.884;8.338;2023-04-06T12:58:36;5.27;;;4.03;;
10880;SDS011;5493;48.884;8.338;2023-04-06T13:01:05;5.60;;;4.17;;
10880;SDS011;5493;48.884;8.338;2023-04-06T13:03:33;4.00;;;3.43;;
10880;SDS011;5493;48.884;8.338;2023-04-06T13:06:00;4.73;;;3.80;;
10880;SDS011;5493;48.884;8.338;2023-04-06T13:08:27;4.83;;;3.83;;
10880;SDS011;5493;48.884;8.338;2023-04-06T13:10:53;4.30;;;3.40;;
10880;SDS011;5493;48.884;8.338;2023-04-06T13:13:22;5.00;;;3.93;;
10880;SDS011;5493;48.884;8.338;2023-04-06T13:15:49;6.20;;;4.63;;
10880;SDS011;5493;48.884;8.338;2023-04-06T13:18:18;5.87;;;4.50;;
10880;SDS011;5493;48.884;8.338;2023-04-06T13:20:46;5.53;;;4.30;;
10880;SDS011;5493;48.884;8.338;2023-04-06T13:23:13;5.57;;;4.13;;
10880;SDS011;5493;48.884;8.338;2023-04-06T13:25:39;6.13;;;4.73;;
10880;SDS011;5493;48.884;8.338;2023-04-06T13:28:06;5.37;;;4.60;;
10880;SDS011;5493;48.884;8.338;2023-04-06T13:30:33;6.40;;;4.87;;
10880;SDS011;5493;48.884;8.338;2023-04-06T13:33:00;6.50;;;4.43;;
10880;SDS011;5493;48.884;8.338;2023-04-06T13:35:28;5.83;;;4.40;;
10880;SDS011;5493;48.884;8.338;2023-04-06T13:37:55;5.83;;;4.37;;
10880;SDS011;5493;48.884;8.338;2023-04-06T13:40:21;5.43;;;3.70;;
10880;SDS011;5493;48.884;8.338;2023-04-06T13:42:48;6.33;;;4.10;;
10880;SDS011;5493;48.884;8.338;2023-04-06T13:45:15;4.73;;;3.90;;
10880;SDS011;5493;48.884;8.338;2023-04-06T13:47:42;5.20;;;3.77;;
10880;SDS011;5493;48.884;8.338;2023-04-06T13:50:08;5.23;;;3.87;;
10880;SDS011;5493;48.884;8.338;2023-04-06T13:52:36;5.50;;;3.60;;
10880;SDS011;5493;48.884;8.338;2023-04-06T13:55:03;6.33;;;3.60;;
10880;SDS011;5493;48.884;8.338;2023-04-06T13:57:30;5.60;;;4.30;;
10880;SDS011;5493;48.884;8.338;2023-04-06T13:59:57;5.03;;;3.33;;
10880;SDS011;5493;48.884;8.338;2023-04-06T14:02:23;4.77;;;3.73;;
10880;SDS011;5493;48.884;8.338;2023-04-06T14:04:52;5.90;;;3.90;;
10880;SDS011;5493;48.884;8.338;2023-04-06T14:07:19;6.77;;;4.10;;
10880;SDS011;5493;48.884;8.338;2023-04-06T14:09:47;5.73;;;3.67;;
10880;SDS011;5493;48.884;8.338;2023-04-06T14:12:14;6.03;;;4.40;;
10880;SDS011;5493;48.884;8.338;2023-04-06T14:14:41;5.13;;;4.03;;
10880;SDS011;5493;48.884;8.338;2023-04-06T14:17:07;6.37;;;4.20;;
10880;SDS011;5493;48.884;8.338;2023-04-06T14:19:34;6.53;;;4.33;;
10880;SDS011;5493;48.884;8.338;2023-04-06T14:22:01;7.20;;;4.27;;
10880;SDS011;5493;48.884;8.338;2023-04-06T14:24:27;6.70;;;3.97;;
10880;SDS011;5493;48.884;8.338;2023-04-06T14:26:55;5.87;;;4.10;;
10880;SDS011;5493;48.884;8.338;2023-04-06T14:29:22;5.77;;;4.10;;
10880;SDS011;5493;48.884;8.338;2023-04-06T14:31:48;8.30;;;4.13;;
10880;SDS011;5493;48.884;8.338;2023-04-06T14:34:15;7.03;;;4.57;;
10880;SDS011;5493;48.884;8.338;2023-04-06T14:36:41;7.10;;;4.87;;
10880;SDS011;5493;48.884;8.338;2023-04-06T14:39:08;7.00;;;4.67;;
10880;SDS011;5493;48.884;8.338;2023-04-06T14:41:35;7.57;;;5.20;;
10880;SDS011;5493;48.884;8.338;2023-04-06T14:44:03;7.57;;;4.90;;
10880;SDS011;5493;48.884;8.338;2023-04-06T14:46:30;7.20;;;4.37;;
10880;SDS011;5493;48.884;8.338;2023-04-06T14:48:57;7.93;;;4.27;;
10880;SDS011;5493;48.884;8.338;2023-04-06T14:51:24;8.63;;;5.57;;
10880;SDS011;5493;48.884;8.338;2023-04-06T14:53:52;6.63;;;4.80;;
10880;SDS011;5493;48.884;8.338;2023-04-06T14:56:19;7.07;;;4.60;;
10880;SDS011;5493;48.884;8.338;2023-04-06T14:58:47;6.77;;;4.50;;
10880;SDS011;5493;48.884;8.338;2023-04-06T15:01:15;6.50;;;4.23;;